Time;durP1;ratioP1;P1;durP2;ratioP2;P2;SDS_P1;SDS_P2;PMS_P1;PMS_P2;Temp;Humidity;BMP_temperature;BMP_pressure;BME280_temperature;BME280_humidity;BME280_pressure;Samples;Min_cycle;Max_cycle;Signal;HPM_P1;HPM_P2
2023/03/19 00:01:17;;;;;;;;;19.00;17.25;;;;;12.20;53.58;99195.41;5097277;27;45337;-75
2023/03/19 00:03:43;;;;;;;;;16.33;15.67;;;;;12.20;53.56;99204.19;5094608;27;45373;-75
2023/03/19 00:06:08;;;;;;;;;15.33;14.67;;;;;12.19;53.78;99196.34;5090492;27;45384;-76
2023/03/19 00:08:34;;;;;;;;;16.67;16.67;;;;;12.18;53.82;99199.91;5076400;27;46063;-76
2023/03/19 00:11:05;;;;;;;;;21.50;19.00;;;;;12.17;54.11;99206.13;5090445;27;45451;-76
2023/03/19 00:13:30;;;;;;;;;25.00;22.33;;;;;12.17;53.94;99214.03;5075896;27;45596;-75
2023/03/19 00:15:56;;;;;;;;;28.00;20.67;;;;;12.17;54.08;99204.31;5095200;27;45463;-75
2023/03/19 00:18:21;;;;;;;;;19.67;18.00;;;;;12.16;54.10;99210.53;5093432;27;45475;-75
2023/03/19 00:20:46;;;;;;;;;19.67;17.67;;;;;12.17;54.18;99214.03;5069066;27;45795;-75
2023/03/19 00:23:12;;;;;;;;;21.67;20.00;;;;;12.17;54.03;99214.91;5094398;27;45538;-75
2023/03/19 00:25:38;;;;;;;;;20.33;18.00;;;;;12.17;54.36;99217.53;5095268;27;45524;-75
2023/03/19 00:28:03;;;;;;;;;24.33;21.00;;;;;12.16;54.24;99215.81;5095642;27;45400;-75
2023/03/19 00:30:29;;;;;;;;;22.67;21.00;;;;;12.18;54.22;99213.97;5093054;27;45548;-75
2023/03/19 00:32:54;;;;;;;;;23.33;21.00;;;;;12.19;54.14;99214.84;5077099;27;47164;-75
2023/03/19 00:35:23;;;;;;;;;22.00;20.33;;;;;12.19;54.02;99215.69;5087250;27;45550;-73
2023/03/19 00:37:48;;;;;;;;;21.00;18.33;;;;;12.20;53.99;99221.84;5069662;27;45439;-75
2023/03/19 00:40:14;;;;;;;;;18.67;18.00;;;;;12.21;53.87;99221.78;5094204;27;45499;-75
2023/03/19 00:42:43;;;;;;;;;21.33;21.00;;;;;12.23;53.96;99219.88;5094254;27;47257;-75
2023/03/19 00:45:11;;;;;;;;;23.67;22.33;;;;;12.24;53.89;99224.25;5093699;27;45317;-74
2023/03/19 00:47:41;;;;;;;;;23.33;23.33;;;;;12.26;54.11;99215.41;5093349;27;45533;-73
2023/03/19 00:50:07;;;;;;;;;27.67;23.00;;;;;12.24;53.94;99211.03;5087038;27;45519;-75
2023/03/19 00:52:32;;;;;;;;;21.67;21.33;;;;;12.26;53.97;99220.69;5096114;27;46098;-75
2023/03/19 00:54:57;;;;;;;;;28.67;24.33;;;;;12.25;53.83;99219.81;5091344;27;45341;-75
2023/03/19 00:57:23;;;;;;;;;24.00;22.33;;;;;12.25;53.91;99219.81;5096679;27;46035;-76
2023/03/19 00:59:48;;;;;;;;;24.00;22.67;;;;;12.25;53.84;99217.19;5076115;27;45589;-75
2023/03/19 01:02:14;;;;;;;;;25.00;23.00;;;;;12.24;53.88;99216.31;5096374;27;45438;-76
2023/03/19 01:04:39;;;;;;;;;27.33;25.33;;;;;12.20;54.68;99219.19;5091793;27;45353;-75
2023/03/19 01:07:05;;;;;;;;;25.33;21.33;;;;;12.16;54.71;99220.25;5096202;27;45349;-75
2023/03/19 01:09:31;;;;;;;;;20.00;18.33;;;;;12.12;54.12;99219.53;5093052;27;45459;-75
2023/03/19 01:11:57;;;;;;;;;23.67;23.67;;;;;12.10;54.25;99220.50;5096095;27;46459;-75
2023/03/19 01:14:23;;;;;;;;;18.33;17.67;;;;;12.06;54.71;99225.09;5094496;27;45430;-75
2023/03/19 01:16:48;;;;;;;;;25.00;22.67;;;;;12.03;54.66;99222.59;5095720;27;45545;-75
2023/03/19 01:19:15;;;;;;;;;30.00;24.00;;;;;12.01;54.84;99218.28;5075936;27;45571;-75
2023/03/19 01:21:44;;;;;;;;;27.67;25.67;;;;;11.97;55.16;99233.41;5095379;27;45410;-75
2023/03/19 01:24:11;;;;;;;;;21.33;21.00;;;;;11.85;55.67;99237.47;5088854;27;45625;-75
2023/03/19 01:26:36;;;;;;;;;22.00;19.67;;;;;11.77;55.32;99236.91;5080444;27;45455;-75
2023/03/19 01:29:01;;;;;;;;;21.67;20.33;;;;;11.71;55.47;99231.03;5092010;27;45545;-75
2023/03/19 01:31:27;;;;;;;;;24.33;20.00;;;;;11.64;56.35;99235.69;5095473;27;45571;-75
2023/03/19 01:33:52;;;;;;;;;19.67;18.33;;;;;11.56;56.14;99214.06;5090764;27;45652;-75
2023/03/19 01:36:17;;;;;;;;;21.00;17.67;;;;;11.45;56.40;99213.63;5095394;27;45364;-75
2023/03/19 01:38:43;;;;;;;;;19.67;17.67;;;;;11.36;56.78;99219.31;5095151;27;45640;-75
2023/03/19 01:41:08;;;;;;;;;18.33;17.33;;;;;11.30;56.65;99222.19;5088947;27;45551;-75
2023/03/19 01:43:34;;;;;;;;;20.00;17.33;;;;;11.25;56.74;99218.88;5074398;27;45476;-75
2023/03/19 01:46:25;;;;;;;;;21.00;17.00;;;;;11.21;56.93;99222.59;5095922;27;45688;-75
2023/03/19 01:48:54;;;;;;;;;22.00;20.00;;;;;11.18;57.19;99224.44;5082915;27;45486;-74
2023/03/19 01:51:25;;;;;;;;;23.33;20.33;;;;;11.17;57.21;99216.56;5072852;27;48152;-75
2023/03/19 01:53:55;;;;;;;;;19.33;17.00;;;;;11.16;57.48;99215.72;5095243;27;45506;-75
2023/03/19 01:56:31;;;;;;;;;23.00;18.67;;;;;11.16;58.65;99217.50;5089296;27;45507;-75
2023/03/19 01:59:01;;;;;;;;;21.00;20.00;;;;;11.12;58.58;99214.13;5081096;27;45623;-75
2023/03/19 02:01:28;;;;;;;;;23.00;20.33;;;;;11.11;58.33;99214.19;5092775;27;46192;-76
2023/03/19 02:03:54;;;;;;;;;24.33;21.67;;;;;11.10;58.34;99215.94;5086610;27;45447;-75
2023/03/19 02:06:21;;;;;;;;;24.67;23.33;;;;;11.10;58.24;99218.59;5092753;27;45398;-75
2023/03/19 02:08:48;;;;;;;;;25.33;21.00;;;;;11.10;58.28;99221.22;5093387;27;45542;-75
2023/03/19 02:11:14;;;;;;;;;28.33;26.67;;;;;11.08;58.20;99217.78;5095001;27;45432;-75
2023/03/19 02:13:40;;;;;;;;;24.00;24.00;;;;;11.11;59.33;99219.44;5092963;27;45500;-75
2023/03/19 02:16:06;;;;;;;;;21.33;19.67;;;;;11.09;59.72;99219.50;5084779;27;45357;-75
2023/03/19 02:18:31;;;;;;;;;26.00;23.67;;;;;11.08;59.15;99214.28;5090938;27;45588;-75
2023/03/19 02:21:04;;;;;;;;;26.00;22.33;;;;;11.06;59.45;99222.28;5076440;27;45377;-75
2023/03/19 02:23:50;;;;;;;;;25.00;21.67;;;;;11.05;58.83;99217.09;5075006;27;45552;-75
2023/03/19 02:26:19;;;;;;;;;17.00;16.00;;;;;11.03;58.67;99222.41;5094775;27;45395;-75
2023/03/19 02:28:47;;;;;;;;;26.00;20.00;;;;;11.02;58.86;99220.69;5094842;27;45503;-75
2023/03/19 02:31:13;;;;;;;;;16.00;14.33;;;;;11.02;59.08;99222.47;5082405;27;46451;-75
2023/03/19 02:33:39;;;;;;;;;21.00;19.00;;;;;11.01;58.65;99224.25;5092500;27;45431;-75
2023/03/19 02:36:09;;;;;;;;;20.67;19.67;;;;;11.01;59.70;99224.25;5094574;27;45473;-75
2023/03/19 02:38:35;;;;;;;;;25.00;18.67;;;;;11.01;59.40;99218.97;5076841;27;45590;-75
2023/03/19 02:41:03;;;;;;;;;27.67;23.00;;;;;11.02;58.93;99230.38;5075401;27;46095;-75
2023/03/19 02:43:31;;;;;;;;;19.00;18.00;;;;;11.02;59.19;99230.38;5093126;27;45376;-75
2023/03/19 02:45:56;;;;;;;;;19.33;18.00;;;;;11.02;58.55;99231.25;5095018;27;45397;-75
2023/03/19 02:48:22;;;;;;;;;21.67;18.00;;;;;11.04;59.07;99239.97;5092513;27;45490;-75
2023/03/19 02:50:47;;;;;;;;;19.00;17.00;;;;;11.06;58.63;99235.47;5094366;27;45435;-75
2023/03/19 02:53:13;;;;;;;;;19.00;17.00;;;;;11.07;58.73;99231.03;5090407;27;45501;-75
2023/03/19 02:55:38;;;;;;;;;19.67;18.00;;;;;11.10;58.50;99233.56;5084491;27;45548;-75
2023/03/19 02:58:04;;;;;;;;;18.67;17.67;;;;;11.12;58.52;99231.72;5094033;27;45384;-74
2023/03/19 03:00:29;;;;;;;;;21.00;19.00;;;;;11.14;58.36;99235.16;5092087;27;46059;-75
2023/03/19 03:02:56;;;;;;;;;13.00;11.67;;;;;11.15;58.12;99229.81;5094479;27;45471;-75
2023/03/19 03:05:21;;;;;;;;;21.67;20.00;;;;;11.18;58.14;99237.63;5089716;27;45449;-75
2023/03/19 03:07:48;;;;;;;;;18.33;17.33;;;;;11.21;57.84;99226.09;5093890;27;45343;-75
2023/03/19 03:10:14;;;;;;;;;24.00;19.33;;;;;11.24;57.88;99227.72;5089830;27;45362;-75
2023/03/19 03:12:40;;;;;;;;;19.33;18.67;;;;;11.25;57.97;99226.78;5093257;27;45348;-75
2023/03/19 03:15:07;;;;;;;;;5.00;1.00;;;;;11.26;57.79;99232.03;5081405;27;45472;-75
2023/03/19 03:17:35;;;;;;;;;21.00;19.67;;;;;11.28;57.56;99235.47;5097726;27;45442;-75
2023/03/19 03:20:01;;;;;;;;;18.67;17.67;;;;;11.27;58.21;99236.38;5097138;27;46329;-75
2023/03/19 03:22:26;;;;;;;;;16.67;16.67;;;;;11.26;57.93;99234.66;5097285;27;45543;-75
2023/03/19 03:24:52;;;;;;;;;17.33;17.33;;;;;11.26;57.95;99233.78;5094826;27;45388;-75
2023/03/19 03:27:17;;;;;;;;;23.00;21.00;;;;;11.26;57.88;99232.03;5082127;27;45653;-75
2023/03/19 03:29:43;;;;;;;;;22.33;20.67;;;;;11.26;58.45;99247.00;5095894;27;45338;-75
2023/03/19 03:32:08;;;;;;;;;21.00;19.00;;;;;11.17;58.43;99230.63;5097831;27;45381;-75
2023/03/19 03:34:34;;;;;;;;;18.33;17.00;;;;;11.10;58.84;99233.56;5096472;27;45405;-75
2023/03/19 03:36:59;;;;;;;;;18.67;15.67;;;;;11.04;58.74;99229.41;5078984;27;45482;-75
2023/03/19 03:39:25;;;;;;;;;18.67;18.67;;;;;11.02;58.71;99219.84;5096539;27;46150;-75
2023/03/19 03:41:51;;;;;;;;;17.67;16.00;;;;;11.03;58.29;99229.47;5079809;27;45489;-75
2023/03/19 03:44:17;;;;;;;;;20.00;18.00;;;;;11.05;59.00;99230.28;5097519;27;45573;-75
2023/03/19 03:46:42;;;;;;;;;17.33;17.33;;;;;11.08;58.78;99238.03;5089997;27;45404;-75
2023/03/19 03:49:08;;;;;;;;;17.00;17.00;;;;;11.11;58.49;99230.00;5093002;27;46114;-75
2023/03/19 03:51:34;;;;;;;;;18.00;18.00;;;;;11.14;58.54;99243.09;5094303;27;45472;-75
2023/03/19 03:53:59;;;;;;;;;19.67;17.33;;;;;11.18;58.95;99234.13;5095942;27;45523;-75
2023/03/19 03:56:25;;;;;;;;;20.00;19.00;;;;;11.19;58.89;99235.84;5094503;27;45456;-75
2023/03/19 03:58:51;;;;;;;;;17.50;16.50;;;;;11.21;58.38;99238.44;5096861;27;46258;-75
2023/03/19 04:01:17;;;;;;;;;17.00;16.67;;;;;11.24;58.15;99243.56;5097175;27;45407;-75
2023/03/19 04:03:43;;;;;;;;;21.67;19.67;;;;;11.26;59.02;99244.34;5097488;27;45588;-75
2023/03/19 04:06:14;;;;;;;;;22.00;18.00;;;;;11.26;58.68;99250.50;5096265;27;45449;-75
2023/03/19 04:08:40;;;;;;;;;18.33;17.33;;;;;11.27;59.23;99249.56;5095311;27;46562;-75
2023/03/19 04:11:06;;;;;;;;;20.67;17.67;;;;;11.28;58.60;99251.28;5096789;27;45499;-75
2023/03/19 04:13:35;;;;;;;;;14.00;14.00;;;;;11.30;58.35;99254.72;5096939;27;45523;-75
2023/03/19 04:16:08;;;;;;;;;16.25;15.75;;;;;11.31;58.01;99256.44;5095394;27;45381;-75
2023/03/19 04:18:35;;;;;;;;;15.75;13.25;;;;;11.32;58.06;99252.88;5093124;27;46153;-75
2023/03/19 04:21:00;;;;;;;;;14.67;14.67;;;;;11.35;58.03;99259.81;5096736;27;45488;-76
2023/03/19 04:23:26;;;;;;;;;15.50;14.00;;;;;11.36;57.97;99251.84;5096443;27;45347;-75
2023/03/19 04:25:52;;;;;;;;;12.25;11.75;;;;;11.36;57.50;99251.00;5096946;27;45333;-75
2023/03/19 04:28:17;;;;;;;;;13.75;13.75;;;;;11.35;57.66;99255.41;5094383;27;46320;-75
2023/03/19 04:30:43;;;;;;;;;19.67;17.67;;;;;11.34;58.61;99256.31;5088744;27;45907;-75
2023/03/19 04:33:10;;;;;;;;;20.33;18.33;;;;;11.31;58.96;99256.44;5088606;27;45427;-75
2023/03/19 04:35:36;;;;;;;;;17.00;15.33;;;;;11.30;58.39;99253.88;5093215;27;45442;-75
2023/03/19 04:38:02;;;;;;;;;18.67;17.33;;;;;11.29;58.56;99257.44;5096841;27;45443;-75
2023/03/19 04:40:28;;;;;;;;;17.67;15.33;;;;;11.28;59.11;99253.06;5077446;27;45573;-75
2023/03/19 04:42:53;;;;;;;;;18.00;15.67;;;;;11.28;59.27;99261.84;5096558;27;45341;-76
2023/03/19 04:45:19;;;;;;;;;15.50;14.25;;;;;11.27;59.16;99265.41;5077797;27;45460;-75
2023/03/19 04:47:44;;;;;;;;;18.00;17.33;;;;;11.23;59.05;99260.34;5096384;27;45483;-75
2023/03/19 04:50:10;;;;;;;;;16.00;15.00;;;;;11.18;58.92;99266.66;5078205;27;45326;-75
2023/03/19 04:52:36;;;;;;;;;15.33;15.33;;;;;11.21;58.92;99270.09;5096219;27;45301;-75
2023/03/19 04:55:03;;;;;;;;;16.50;16.50;;;;;11.21;58.88;99270.94;5074238;27;45393;-75
2023/03/19 04:57:29;;;;;;;;;19.33;18.67;;;;;11.26;59.77;99276.88;5094177;27;45493;-75
2023/03/19 04:59:54;;;;;;;;;18.67;16.67;;;;;11.25;59.74;99277.81;5092030;27;45468;-75
2023/03/19 05:02:20;;;;;;;;;24.67;22.67;;;;;11.21;59.75;99284.16;5093869;27;45355;-75
2023/03/19 05:04:46;;;;;;;;;24.00;21.00;;;;;11.18;59.97;99279.00;5088014;27;45593;-75
2023/03/19 05:07:12;;;;;;;;;18.67;18.67;;;;;11.17;60.54;99287.81;5087535;27;46822;-75
2023/03/19 05:09:37;;;;;;;;;14.75;14.75;;;;;11.19;60.13;99288.63;5092055;27;45455;-75
2023/03/19 05:12:03;;;;;;;;;15.00;14.75;;;;;11.21;59.27;99284.16;5096556;27;45435;-75
2023/03/19 05:14:28;;;;;;;;;16.50;14.50;;;;;11.22;59.21;99287.66;5091203;27;45330;-75
2023/03/19 05:16:53;;;;;;;;;16.00;15.00;;;;;11.23;59.11;99284.91;5096156;27;45519;-75
2023/03/19 05:19:19;;;;;;;;;16.00;14.75;;;;;11.26;59.02;99291.84;5083955;27;45813;-75
2023/03/19 05:21:44;;;;;;;;;15.50;11.50;;;;;11.26;58.91;99295.34;5077753;27;45357;-75
2023/03/19 05:24:10;;;;;;;;;14.75;14.50;;;;;11.26;58.78;99300.63;5091756;27;45585;-75
2023/03/19 05:26:36;;;;;;;;;17.67;15.33;;;;;11.27;58.84;99297.06;5088259;27;46676;-75
2023/03/19 05:29:02;;;;;;;;;15.67;14.33;;;;;11.27;58.85;99296.22;5093842;27;45576;-75
2023/03/19 05:31:28;;;;;;;;;17.00;16.00;;;;;11.24;58.97;99294.56;5096258;27;45404;-75
2023/03/19 05:33:53;;;;;;;;;15.33;15.33;;;;;11.23;58.86;99295.47;5077069;27;45488;-75
2023/03/19 05:36:18;;;;;;;;;16.50;15.75;;;;;11.21;58.88;99304.41;5095146;27;46098;-75
2023/03/19 05:38:44;;;;;;;;;15.25;14.25;;;;;11.19;59.08;99305.31;5088945;27;45787;-75
2023/03/19 05:41:09;;;;;;;;;16.25;15.25;;;;;11.21;59.09;99302.63;5096001;27;45484;-75
2023/03/19 05:43:35;;;;;;;;;17.00;14.25;;;;;11.24;59.42;99313.03;5088593;27;45629;-75
2023/03/19 05:46:00;;;;;;;;;17.00;16.00;;;;;11.27;59.98;99312.91;5095505;27;46141;-75
2023/03/19 05:48:26;;;;;;;;;15.00;14.25;;;;;11.28;60.02;99319.91;5094288;27;45427;-75
2023/03/19 05:50:51;;;;;;;;;15.25;14.00;;;;;11.31;60.15;99322.44;5095438;27;45407;-75
2023/03/19 05:53:18;;;;;;;;;15.67;14.33;;;;;11.33;60.67;99331.16;5094291;27;45530;-75
2023/03/19 05:55:43;;;;;;;;;12.25;12.25;;;;;11.33;61.20;99331.16;5090691;27;45366;-75
2023/03/19 05:58:09;;;;;;;;;11.00;10.00;;;;;11.35;61.40;99339.88;5094923;27;45479;-75
2023/03/19 06:00:35;;;;;;;;;23.00;17.50;;;;;11.37;61.54;99345.09;5087910;27;45534;-75
2023/03/19 06:03:00;;;;;;;;;17.25;14.00;;;;;11.40;61.51;99347.59;5079419;27;45506;-76
2023/03/19 06:05:26;;;;;;;;;17.25;15.25;;;;;11.40;61.71;99353.72;5086258;27;46404;-75
2023/03/19 06:07:51;;;;;;;;;18.25;15.75;;;;;11.39;61.51;99351.19;5095499;27;45525;-75
2023/03/19 06:10:17;;;;;;;;;12.50;11.50;;;;;11.38;61.59;99355.59;5092066;27;46087;-75
2023/03/19 06:12:42;;;;;;;;;17.75;16.25;;;;;11.36;61.55;99365.34;5094970;27;45467;-75
2023/03/19 06:15:08;;;;;;;;;16.00;15.33;;;;;11.36;61.87;99364.50;5090251;27;46652;-75
2023/03/19 06:17:35;;;;;;;;;13.67;13.33;;;;;11.37;61.93;99366.22;5095007;27;45414;-75
2023/03/19 06:20:00;;;;;;;;;17.25;16.50;;;;;11.37;62.01;99385.56;5082273;27;45470;-75
2023/03/19 06:22:26;;;;;;;;;17.67;15.33;;;;;11.37;62.78;99377.63;5078161;27;45660;-75
2023/03/19 06:24:51;;;;;;;;;11.00;9.25;;;;;11.38;62.25;99383.78;5083443;27;47935;-75
2023/03/19 06:27:17;;;;;;;;;14.75;14.50;;;;;11.38;62.34;99381.13;5092032;27;45427;-75
2023/03/19 06:29:42;;;;;;;;;11.75;11.75;;;;;11.38;62.86;99383.78;5086684;27;45526;-75
2023/03/19 06:32:08;;;;;;;;;20.00;14.00;;;;;11.40;62.88;99388.03;5094636;27;45618;-75
2023/03/19 06:34:34;;;;;;;;;13.25;12.75;;;;;11.40;62.70;99395.97;5092390;27;46334;-75
2023/03/19 06:37:00;;;;;;;;;13.50;11.75;;;;;11.40;62.94;99397.75;5085162;27;45388;-75
2023/03/19 06:39:26;;;;;;;;;16.50;16.50;;;;;11.40;63.70;99401.25;5090925;27;45351;-75
2023/03/19 06:41:51;;;;;;;;;15.50;15.50;;;;;11.36;63.58;99401.44;5091700;27;45301;-75
2023/03/19 06:44:17;;;;;;;;;15.33;13.67;;;;;11.33;64.64;99406.84;5093369;27;46200;-75
2023/03/19 06:46:42;;;;;;;;;15.00;13.33;;;;;11.30;65.02;99412.22;5090354;27;45424;-77
2023/03/19 06:49:07;;;;;;;;;17.67;16.33;;;;;11.30;64.76;99406.94;5089955;27;45573;-75
2023/03/19 06:51:33;;;;;;;;;14.75;11.75;;;;;11.29;65.08;99413.16;5074252;27;45568;-75
2023/03/19 06:53:58;;;;;;;;;15.00;11.50;;;;;11.30;64.69;99413.09;5090442;27;45402;-75
2023/03/19 06:56:23;;;;;;;;;14.25;12.75;;;;;11.30;64.08;99412.22;5076089;27;45413;-75
2023/03/19 06:58:49;;;;;;;;;14.25;14.25;;;;;11.29;64.59;99421.06;5090601;27;45401;-75
2023/03/19 07:01:15;;;;;;;;;16.67;15.00;;;;;11.28;64.53;99420.19;5072220;27;45642;-75
2023/03/19 07:03:40;;;;;;;;;12.75;11.25;;;;;11.29;65.01;99421.06;5092407;27;46073;-75
2023/03/19 07:06:06;;;;;;;;;14.00;13.50;;;;;11.29;64.54;99424.56;5090795;27;45398;-75
2023/03/19 07:08:32;;;;;;;;;13.00;13.00;;;;;11.30;64.70;99426.28;5081609;27;45666;-75
2023/03/19 07:11:03;;;;;;;;;13.50;13.50;;;;;11.33;64.71;99427.94;5092391;27;45422;-75
2023/03/19 07:13:29;;;;;;;;;13.50;13.50;;;;;11.33;65.59;99435.88;5091037;27;45781;-75
2023/03/19 07:15:54;;;;;;;;;18.00;14.25;;;;;11.35;67.17;99434.03;5088420;27;45514;-75
2023/03/19 07:18:20;;;;;;;;;15.25;13.50;;;;;11.32;66.41;99434.16;5092617;27;45374;-75
2023/03/19 07:20:45;;;;;;;;;18.75;15.75;;;;;11.29;67.47;99439.53;5087823;27;45411;-75
2023/03/19 07:23:11;;;;;;;;;12.00;12.00;;;;;11.29;67.64;99439.53;5091658;27;46337;-75
2023/03/19 07:25:36;;;;;;;;;17.00;13.25;;;;;11.30;67.57;99442.13;5075369;27;45523;-76
2023/03/19 07:28:01;;;;;;;;;14.75;13.00;;;;;11.31;67.63;99442.97;5082110;27;45386;-75
2023/03/19 07:30:27;;;;;;;;;13.75;13.25;;;;;11.33;67.50;99455.22;5087887;27;45664;-75
2023/03/19 07:32:53;;;;;;;;;15.75;12.75;;;;;11.33;68.30;99452.56;5081522;27;47843;-76
2023/03/19 07:35:19;;;;;;;;;16.75;14.00;;;;;11.34;69.04;99458.72;5088457;27;45370;-76
2023/03/19 07:37:44;;;;;;;;;17.25;16.75;;;;;11.34;69.47;99461.34;5092383;27;45380;-75
2023/03/19 07:40:10;;;;;;;;;17.75;14.75;;;;;11.35;69.96;99468.34;5075159;27;45776;-75
2023/03/19 07:42:35;;;;;;;;;18.00;18.00;;;;;11.36;70.14;99467.44;5093499;27;45395;-75
2023/03/19 07:45:02;;;;;;;;;17.25;16.25;;;;;11.36;69.92;99470.94;5079052;27;45461;-75
2023/03/19 07:47:29;;;;;;;;;21.33;19.00;;;;;11.41;70.72;99476.03;5093396;27;45461;-75
2023/03/19 07:49:54;;;;;;;;;17.50;16.50;;;;;11.45;70.84;99478.50;5092520;27;45426;-75
2023/03/19 07:52:20;;;;;;;;;23.00;18.00;;;;;11.49;71.12;99474.81;5076757;27;46918;-75
2023/03/19 07:54:45;;;;;;;;;18.67;16.33;;;;;11.57;71.42;99481.56;5083310;27;45420;-76
2023/03/19 07:57:11;;;;;;;;;15.00;12.33;;;;;11.62;71.05;99485.78;5087451;27;45493;-76
2023/03/19 07:59:36;;;;;;;;;15.25;13.00;;;;;11.63;71.36;99476.94;5084667;27;45516;-76
2023/03/19 08:02:01;;;;;;;;;20.25;14.75;;;;;11.66;71.24;99483.88;5081701;27;47219;-76
2023/03/19 08:04:27;;;;;;;;;17.00;16.50;;;;;11.68;71.65;99487.31;5095543;27;45392;-76
2023/03/19 08:06:52;;;;;;;;;16.75;15.00;;;;;11.69;71.76;99479.34;5096410;27;45514;-76
2023/03/19 08:09:18;;;;;;;;;17.75;17.75;;;;;11.71;72.24;99488.06;5087282;27;45487;-75
2023/03/19 08:11:43;;;;;;;;;22.00;19.00;;;;;11.76;72.58;99485.25;5095335;27;45563;-75
2023/03/19 08:14:08;;;;;;;;;19.00;16.25;;;;;11.77;72.22;99487.84;5091233;27;45464;-75
2023/03/19 08:16:34;;;;;;;;;11.50;10.50;;;;;11.80;72.13;99494.81;5092021;27;45930;-75
2023/03/19 08:18:59;;;;;;;;;17.50;16.00;;;;;11.82;72.33;99493.81;5073419;27;45307;-74
2023/03/19 08:21:25;;;;;;;;;16.00;13.75;;;;;11.85;71.97;99492.84;5080349;27;46884;-75
2023/03/19 08:23:52;;;;;;;;;15.00;13.25;;;;;11.91;71.57;99486.44;5094229;27;45644;-75
2023/03/19 08:26:17;;;;;;;;;14.75;12.50;;;;;11.95;71.50;99486.25;5084932;27;45524;-75
2023/03/19 08:28:42;;;;;;;;;11.50;11.00;;;;;12.00;71.63;99489.59;5091082;27;45385;-75
2023/03/19 08:31:10;;;;;;;;;13.50;13.25;;;;;12.06;71.72;99499.06;5096319;27;45605;-75
2023/03/19 08:33:35;;;;;;;;;7.75;7.75;;;;;12.09;70.92;99491.84;5074050;27;45413;-76
2023/03/19 08:36:13;;;;;;;;;10.50;10.25;;;;;12.14;70.75;99489.91;5096051;27;45356;-76
2023/03/19 08:38:39;;;;;;;;;14.25;14.25;;;;;12.21;70.89;99488.75;5089074;27;46015;-76
2023/03/19 08:41:05;;;;;;;;;17.00;17.00;;;;;12.26;71.57;99483.25;5096095;27;48109;-76
2023/03/19 08:43:32;;;;;;;;;12.00;11.00;;;;;12.26;71.12;99485.88;5086028;27;45370;-76
2023/03/19 08:45:58;;;;;;;;;16.67;16.67;;;;;12.29;71.68;99485.75;5096217;27;45389;-76
2023/03/19 08:48:24;;;;;;;;;19.67;19.67;;;;;12.31;72.35;99481.28;5083448;27;45510;-76
2023/03/19 08:50:54;;;;;;;;;24.33;23.67;;;;;12.37;72.83;99485.47;5095701;27;45469;-76
2023/03/19 08:53:19;;;;;;;;;21.33;21.33;;;;;12.43;72.32;99501.06;5095059;27;45376;-76
2023/03/19 08:55:53;;;;;;;;;20.33;19.00;;;;;12.44;71.93;99506.28;5084598;27;45351;-76
2023/03/19 08:58:19;;;;;;;;;18.00;16.67;;;;;12.45;71.32;99509.78;5094330;27;45393;-75
2023/03/19 09:00:46;;;;;;;;;28.33;20.33;;;;;12.37;71.83;99510.13;5095725;27;46715;-75
2023/03/19 09:03:11;;;;;;;;;22.67;22.67;;;;;12.29;71.14;99504.25;5091730;27;45332;-75
2023/03/19 09:05:36;;;;;;;;;22.67;22.00;;;;;12.20;72.62;99505.50;5096178;27;45395;-76
2023/03/19 09:08:02;;;;;;;;;25.00;23.67;;;;;12.07;72.33;99509.56;5095094;27;45384;-75
2023/03/19 09:10:27;;;;;;;;;22.67;22.00;;;;;12.04;73.10;99519.41;5089542;27;45494;-75
2023/03/19 09:12:53;;;;;;;;;24.67;24.00;;;;;12.10;73.28;99509.44;5095867;27;45766;-74
2023/03/19 09:15:18;;;;;;;;;26.67;24.00;;;;;12.17;73.24;99510.91;5091381;27;45450;-76
2023/03/19 09:17:51;;;;;;;;;22.00;22.00;;;;;12.17;72.69;99512.69;5095545;27;45352;-74
2023/03/19 09:20:17;;;;;;;;;25.00;23.33;;;;;12.12;72.80;99519.94;5066944;27;46707;-74
2023/03/19 09:22:43;;;;;;;;;22.33;21.67;;;;;12.12;72.76;99515.53;5095605;27;45369;-75
2023/03/19 09:25:09;;;;;;;;;22.67;21.67;;;;;12.14;72.60;99518.97;5081657;27;45685;-67
2023/03/19 09:27:34;;;;;;;;;24.33;20.67;;;;;12.23;72.60;99515.13;5093174;27;45542;-67
2023/03/19 09:30:00;;;;;;;;;17.67;17.67;;;;;12.33;72.05;99505.88;5093889;27;45618;-66
2023/03/19 09:32:25;;;;;;;;;19.00;19.00;;;;;12.48;72.26;99507.00;5094994;27;45478;-69
2023/03/19 09:34:50;;;;;;;;;25.67;23.33;;;;;12.59;72.07;99513.56;5091057;27;45448;-72
2023/03/19 09:37:16;;;;;;;;;26.00;24.67;;;;;12.68;72.21;99516.75;5095259;27;45511;-73
2023/03/19 09:39:41;;;;;;;;;24.67;23.67;;;;;12.78;72.17;99516.28;5094699;27;45594;-70
2023/03/19 09:42:32;;;;;;;;;24.33;23.00;;;;;12.91;71.78;99519.28;5076668;27;45578;-69
2023/03/19 09:44:57;;;;;;;;;24.67;24.67;;;;;13.01;71.68;99519.75;5094024;27;45393;-69
2023/03/19 09:47:33;;;;;;;;;33.67;28.00;;;;;13.11;71.46;99513.13;5094835;27;45466;-65
2023/03/19 09:50:05;;;;;;;;;28.00;25.00;;;;;13.16;70.72;99513.81;5089508;27;46802;-72
2023/03/19 09:52:40;;;;;;;;;23.00;22.33;;;;;13.18;70.50;99517.25;5094696;27;45459;-71
2023/03/19 09:55:19;;;;;;;;;24.67;21.67;;;;;13.16;70.84;99508.50;5094991;27;45490;-71
2023/03/19 09:57:46;;;;;;;;;22.00;22.00;;;;;13.15;70.79;99509.44;5091698;27;45432;-73
2023/03/19 10:00:22;;;;;;;;;24.00;22.00;;;;;13.19;70.66;99503.09;5074117;27;45484;-69
2023/03/19 10:02:57;;;;;;;;;28.00;27.00;;;;;13.25;70.54;99502.78;5092143;27;45464;-69
2023/03/19 10:05:22;;;;;;;;;26.00;23.67;;;;;13.32;70.56;99508.69;5068676;27;45638;-70
2023/03/19 10:08:03;;;;;;;;;31.33;28.00;;;;;13.40;70.60;99501.28;5071338;27;45331;-70
2023/03/19 10:10:43;;;;;;;;;27.33;23.00;;;;;13.43;70.64;99504.63;5073792;27;47020;-70
2023/03/19 10:13:46;;;;;;;;;23.00;22.00;;;;;13.44;69.90;99502.81;5071237;27;45556;-70
2023/03/19 10:16:26;;;;;;;;;36.33;30.33;;;;;13.42;70.64;99505.53;5085153;27;45582;-70
2023/03/19 10:18:56;;;;;;;;;28.67;27.00;;;;;13.41;70.61;99505.59;5086585;27;45457;-70
2023/03/19 10:21:33;;;;;;;;;28.33;26.00;;;;;13.45;71.22;99501.91;5087336;27;45514;-70
2023/03/19 10:24:05;;;;;;;;;21.00;17.33;;;;;13.51;70.47;99501.63;5092572;27;45495;-69
2023/03/19 10:26:34;;;;;;;;;25.33;19.67;;;;;13.57;70.52;99504.00;5085653;27;45495;-69
2023/03/19 10:29:05;;;;;;;;;18.50;17.00;;;;;13.62;69.18;99497.53;5094046;27;45351;-70
2023/03/19 10:31:51;;;;;;;;;15.50;13.75;;;;;13.63;68.64;99496.63;5093543;27;46591;-70
2023/03/19 10:34:36;;;;;;;;;15.00;15.00;;;;;13.68;68.98;99495.56;5074385;27;45686;-70
2023/03/19 10:37:04;;;;;;;;;16.00;14.25;;;;;13.76;68.60;99490.75;5092293;27;45479;-70
2023/03/19 10:39:36;;;;;;;;;17.67;16.67;;;;;13.82;68.13;99495.75;5078059;27;45635;-69
2023/03/19 10:42:35;;;;;;;;;19.50;17.00;;;;;13.89;68.57;99484.81;5074543;27;46729;-69
2023/03/19 10:45:13;;;;;;;;;24.00;21.67;;;;;13.99;68.55;99482.56;5090440;27;45482;-69
2023/03/19 10:47:41;;;;;;;;;19.00;18.00;;;;;14.09;67.75;99472.34;5093542;27;45601;-69
2023/03/19 10:50:15;;;;;;;;;18.00;16.75;;;;;14.17;66.70;99472.84;5083108;27;45584;-69
2023/03/19 10:52:42;;;;;;;;;16.00;16.00;;;;;14.18;66.67;99475.44;5085414;27;45875;-69
2023/03/19 10:55:24;;;;;;;;;15.50;13.25;;;;;14.26;66.61;99480.34;5090062;27;45455;-69
2023/03/19 10:57:56;;;;;;;;;20.25;13.00;;;;;14.29;66.75;99481.06;5068780;27;45448;-66
2023/03/19 11:00:24;;;;;;;;;12.50;11.75;;;;;14.35;65.52;99477.25;5087910;27;45444;-64
2023/03/19 11:02:53;;;;;;;;;8.75;8.75;;;;;14.39;64.75;99468.22;5095113;27;45438;-68
2023/03/19 11:05:29;;;;;;;;;15.00;13.75;;;;;14.48;64.98;99473.06;5093273;27;45439;-67
2023/03/19 11:08:15;;;;;;;;;13.75;13.25;;;;;14.55;65.67;99471.84;5073783;27;45538;-67
2023/03/19 11:10:47;;;;;;;;;13.00;13.00;;;;;14.62;64.76;99470.59;5091965;27;45325;-72
2023/03/19 11:13:23;;;;;;;;;14.25;13.00;;;;;14.71;63.90;99473.72;5094168;27;46560;-69
2023/03/19 11:15:51;;;;;;;;;18.25;14.25;;;;;14.76;64.05;99466.34;5094083;27;45530;-69
2023/03/19 11:18:28;;;;;;;;;18.50;15.50;;;;;14.75;64.49;99467.28;5093840;27;45389;-68